Terminal Aerodrome Forecast
Issued by NWS

Home | Current Version | Previous Version | Text Only | Print | Product List | Glossary On
Versions: 1 2 3 4 5 6 7 8 9 10 11 12 13 14 15 16 17 18 19 20 21 22 23 24
000
FTUS45 KTFX 300500
TAFLWT
TAF
KLWT 300520Z 3006/0106 23009KT P6SM SCT050 BKN090
     FM301000 26012KT P6SM VCSH SCT030 OVC050
     FM301700 29016G24KT P6SM BKN050
     FM010000 32014G22KT P6SM VCSH SCT025 BKN040=

USA.gov is the U.S. government's official web portal to all federal, state and local government web resources and services.